Atlantic Island — C4VM2 — position and weather

sailwx.info

Track history (hours):
 
Tides and Currents Weather Stations Pressure Air Temp Water Temp Dewpoint Dewpoint Depression Visibility Wind Speed Wind Dir Waves Ship Positions

Atlantic Island

Last reported at 2014-Jul-24 04:07 UTC. Time now 2014-Jul-24 19:59 UTC.
Position N 43°32' W 003°39'.

Length 95 m; draft 3.7 m.

Type: Cargo ship. MMSI: 210754000.

Date/timePositionNaut miles runAvg speedWind from/ knotsBaromVisibWave heightAir tempDewpointWater temp
2014-Jul-24 04:07N 43°32' W 003°39'4 7.5
2014-Jul-24 03:33N 43°35' W 003°34'8 7.9
2014-Jul-24 02:33N 43°34' W 003°23'8 7.7
2014-Jul-24 01:33N 43°34' W 003°13'8 7.8
2014-Jul-24 00:33N 43°34' W 003°02'8 7.8
2014-Jul-23 23:33N 43°33' W 002°51'8 7.8
2014-Jul-23 22:33N 43°33' W 002°40'8 8.0
2014-Jul-23 21:32N 43°30' W 002°30'10 8.4
2014-Jul-23 20:23N 43°26' W 002°17'138 3.4
2014-Jul-22 03:32N 43°43' W 005°26'10 9.7
2014-Jul-22 02:31N 43°43' W 005°40'10 9.2
2014-Jul-22 01:26N 43°44' W 005°54'9 9.6
2014-Jul-22 00:27N 43°45' W 006°07'337 6.6
2014-Jul-19 21:33N 38°40' W 009°19'8 8.4
2014-Jul-19 20:33N 38°41' W 009°08'3 3.0
2014-Jul-19 19:32N 38°40' W 009°04'0 0.0
2014-Jul-19 18:32N 38°40' W 009°04'0 0.0
2014-Jul-19 17:32N 38°40' W 009°04'0 0.0
2014-Jul-19 16:32N 38°40' W 009°04'0 0.0
2014-Jul-19 15:32N 38°40' W 009°04'0 0.0
2014-Jul-19 14:32N 38°40' W 009°04'0 0.0
2014-Jul-19 13:32N 38°40' W 009°04'0 0.0
2014-Jul-19 12:32N 38°40' W 009°04'0 0.0
2014-Jul-19 11:32N 38°40' W 009°04'0 0.0
2014-Jul-19 10:32N 38°40' W 009°04'0 0.0
2014-Jul-19 09:32N 38°40' W 009°04'0 0.0
2014-Jul-19 08:32N 38°40' W 009°04'0 0.0
2014-Jul-19 07:32N 38°40' W 009°04'0 0.0
2014-Jul-19 06:31N 38°40' W 009°04'0 0.0
2014-Jul-19 05:31N 38°40' W 009°04'0 0.0
2014-Jul-19 04:31N 38°40' W 009°04'0 0.0
2014-Jul-19 03:31N 38°40' W 009°04'0 0.0
2014-Jul-19 02:31N 38°40' W 009°04'0 0.0
2014-Jul-19 01:31N 38°40' W 009°04'0 0.0
2014-Jul-19 00:31N 38°40' W 009°04'0 0.0
2014-Jul-18 23:31N 38°40' W 009°04'0 0.0
2014-Jul-18 22:31N 38°40' W 009°04'0 0.0
2014-Jul-18 21:31N 38°40' W 009°04'0 0.0
2014-Jul-18 20:31N 38°40' W 009°04'0 0.0
2014-Jul-18 19:31N 38°40' W 009°04'0 0.0
2014-Jul-18 18:31N 38°40' W 009°04'0 0.0
2014-Jul-18 17:31N 38°40' W 009°04'0 0.0
2014-Jul-18 16:28N 38°40' W 009°04'0 0.0
2014-Jul-18 15:28N 38°40' W 009°04'0 0.0
2014-Jul-18 14:28N 38°40' W 009°04'0 0.0
2014-Jul-18 13:31N 38°40' W 009°04'0 0.0
2014-Jul-18 12:28N 38°40' W 009°04'0 0.0
2014-Jul-18 11:31N 38°40' W 009°04'0 0.0
2014-Jul-18 10:28N 38°40' W 009°04'0 0.0
2014-Jul-18 09:28N 38°40' W 009°04'0 0.0
2014-Jul-18 08:31N 38°40' W 009°04'0 0.0
2014-Jul-18 07:31N 38°40' W 009°04'2 2.6
2014-Jul-18 06:33N 38°41' W 009°07'12 8.7
2014-Jul-18 05:09N 38°37' W 009°22'10 6.0
2014-Jul-18 03:32N 38°28' W 009°20'6 5.6
2014-Jul-18 02:30N 38°22' W 009°18'4 4.6
2014-Jul-18 01:33N 38°19' W 009°14'5 4.9
2014-Jul-18 00:33N 38°20' W 009°08'5 5.4
2014-Jul-17 23:33N 38°23' W 009°03'7 6.9
2014-Jul-17 22:32N 38°29' W 008°57'4 4.0
2014-Jul-17 21:33N 38°31' W 008°53'0 0.0
2014-Jul-17 20:33N 38°31' W 008°53'0 0.0
2014-Jul-17 19:33N 38°31' W 008°53'0 0.0
2014-Jul-17 18:33N 38°31' W 008°53'0 0.0
2014-Jul-17 17:33N 38°31' W 008°53'0 0.0
2014-Jul-17 16:33N 38°31' W 008°53'0 0.0
2014-Jul-17 15:27N 38°31' W 008°53'0 0.0
2014-Jul-17 11:33N 38°31' W 008°53'0 0.0
2014-Jul-17 10:33N 38°31' W 008°53'0 0.0
2014-Jul-17 09:27N 38°31' W 008°53'0 0.0
2014-Jul-17 08:24N 38°31' W 008°53'0 0.0
2014-Jul-17 07:12N 38°31' W 008°53'0 0.0
2014-Jul-17 04:32N 38°31' W 008°53'0 0.0
2014-Jul-17 03:32N 38°31' W 008°53'0 0.0
2014-Jul-17 02:20N 38°31' W 008°53'0 0.0
2014-Jul-17 01:29N 38°31' W 008°53'0 0.0
2014-Jul-17 00:26N 38°31' W 008°53'0 0.0
2014-Jul-16 23:29N 38°31' W 008°53'0 0.0
2014-Jul-16 22:33N 38°31' W 008°53'4 4.2
2014-Jul-16 21:33N 38°28' W 008°57'4 4.2
2014-Jul-16 20:33N 38°25' W 009°00'9 8.8
2014-Jul-16 19:33N 38°22' W 009°11'10 9.6
2014-Jul-16 18:33N 38°24' W 009°23'10 9.7
2014-Jul-16 17:32N 38°26' W 009°35'9 9.5
2014-Jul-16 16:33N 38°30' W 009°46'9 9.5
2014-Jul-16 15:33N 38°33' W 009°57'10 9.4
2014-Jul-16 14:33N 38°40' W 010°05'1110.5
2014-Jul-16 13:33N 38°51' W 010°05'1010.2
2014-Jul-16 12:32N 39°01' W 010°05'1010.5
2014-Jul-16 11:32N 39°12' W 010°04'1310.0
2014-Jul-16 10:15N 39°24' W 010°04'3910.0
2014-Jul-16 06:22N 40°03' W 010°05'8 9.6
2014-Jul-16 05:31N 40°11' W 010°05'  
Track history (hours):
 
Tides and Currents Weather Stations Pressure Air Temp Water Temp Dewpoint Dewpoint Depression Visibility Wind Speed Wind Dir Waves Ship Positions

Atlantic Island

Last reported at 2014-Jul-24 04:07 UTC. Time now 2014-Jul-24 19:59 UTC.
Position N 43°32' W 003°39'.

Length 95 m; draft 3.7 m.

Type: Cargo ship. MMSI: 210754000.

Date/timePositionNaut miles runAvg speedWind from/ knotsBaromVisibWave heightAir tempDewpointWater temp
2014-Jul-24 04:07N 43°32' W 003°39'4 7.5
2014-Jul-24 03:33N 43°35' W 003°34'8 7.9
2014-Jul-24 02:33N 43°34' W 003°23'8 7.7
2014-Jul-24 01:33N 43°34' W 003°13'8 7.8
2014-Jul-24 00:33N 43°34' W 003°02'8 7.8
2014-Jul-23 23:33N 43°33' W 002°51'8 7.8
2014-Jul-23 22:33N 43°33' W 002°40'8 8.0
2014-Jul-23 21:32N 43°30' W 002°30'10 8.4
2014-Jul-23 20:23N 43°26' W 002°17'138 3.4
2014-Jul-22 03:32N 43°43' W 005°26'10 9.7
2014-Jul-22 02:31N 43°43' W 005°40'10 9.2
2014-Jul-22 01:26N 43°44' W 005°54'9 9.6
2014-Jul-22 00:27N 43°45' W 006°07'337 6.6
2014-Jul-19 21:33N 38°40' W 009°19'8 8.4
2014-Jul-19 20:33N 38°41' W 009°08'3 3.0
2014-Jul-19 19:32N 38°40' W 009°04'0 0.0
2014-Jul-19 18:32N 38°40' W 009°04'0 0.0
2014-Jul-19 17:32N 38°40' W 009°04'0 0.0
2014-Jul-19 16:32N 38°40' W 009°04'0 0.0
2014-Jul-19 15:32N 38°40' W 009°04'0 0.0
2014-Jul-19 14:32N 38°40' W 009°04'0 0.0
2014-Jul-19 13:32N 38°40' W 009°04'0 0.0
2014-Jul-19 12:32N 38°40' W 009°04'0 0.0
2014-Jul-19 11:32N 38°40' W 009°04'0 0.0
2014-Jul-19 10:32N 38°40' W 009°04'0 0.0
2014-Jul-19 09:32N 38°40' W 009°04'0 0.0
2014-Jul-19 08:32N 38°40' W 009°04'0 0.0
2014-Jul-19 07:32N 38°40' W 009°04'0 0.0
2014-Jul-19 06:31N 38°40' W 009°04'0 0.0
2014-Jul-19 05:31N 38°40' W 009°04'0 0.0
2014-Jul-19 04:31N 38°40' W 009°04'0 0.0
2014-Jul-19 03:31N 38°40' W 009°04'0 0.0
2014-Jul-19 02:31N 38°40' W 009°04'0 0.0
2014-Jul-19 01:31N 38°40' W 009°04'0 0.0
2014-Jul-19 00:31N 38°40' W 009°04'0 0.0
2014-Jul-18 23:31N 38°40' W 009°04'0 0.0
2014-Jul-18 22:31N 38°40' W 009°04'0 0.0
2014-Jul-18 21:31N 38°40' W 009°04'0 0.0
2014-Jul-18 20:31N 38°40' W 009°04'0 0.0
2014-Jul-18 19:31N 38°40' W 009°04'0 0.0
2014-Jul-18 18:31N 38°40' W 009°04'0 0.0
2014-Jul-18 17:31N 38°40' W 009°04'0 0.0
2014-Jul-18 16:28N 38°40' W 009°04'0 0.0
2014-Jul-18 15:28N 38°40' W 009°04'0 0.0
2014-Jul-18 14:28N 38°40' W 009°04'0 0.0
2014-Jul-18 13:31N 38°40' W 009°04'0 0.0
2014-Jul-18 12:28N 38°40' W 009°04'0 0.0
2014-Jul-18 11:31N 38°40' W 009°04'0 0.0
2014-Jul-18 10:28N 38°40' W 009°04'0 0.0
2014-Jul-18 09:28N 38°40' W 009°04'0 0.0
2014-Jul-18 08:31N 38°40' W 009°04'0 0.0
2014-Jul-18 07:31N 38°40' W 009°04'2 2.6
2014-Jul-18 06:33N 38°41' W 009°07'12 8.7
2014-Jul-18 05:09N 38°37' W 009°22'10 6.0
2014-Jul-18 03:32N 38°28' W 009°20'6 5.6
2014-Jul-18 02:30N 38°22' W 009°18'4 4.6
2014-Jul-18 01:33N 38°19' W 009°14'5 4.9
2014-Jul-18 00:33N 38°20' W 009°08'5 5.4
2014-Jul-17 23:33N 38°23' W 009°03'7 6.9
2014-Jul-17 22:32N 38°29' W 008°57'4 4.0
2014-Jul-17 21:33N 38°31' W 008°53'0 0.0
2014-Jul-17 20:33N 38°31' W 008°53'0 0.0
2014-Jul-17 19:33N 38°31' W 008°53'0 0.0
2014-Jul-17 18:33N 38°31' W 008°53'0 0.0
2014-Jul-17 17:33N 38°31' W 008°53'0 0.0
2014-Jul-17 16:33N 38°31' W 008°53'0 0.0
2014-Jul-17 15:27N 38°31' W 008°53'0 0.0
2014-Jul-17 11:33N 38°31' W 008°53'0 0.0
2014-Jul-17 10:33N 38°31' W 008°53'0 0.0
2014-Jul-17 09:27N 38°31' W 008°53'0 0.0
2014-Jul-17 08:24N 38°31' W 008°53'0 0.0
2014-Jul-17 07:12N 38°31' W 008°53'0 0.0
2014-Jul-17 04:32N 38°31' W 008°53'0 0.0
2014-Jul-17 03:32N 38°31' W 008°53'0 0.0
2014-Jul-17 02:20N 38°31' W 008°53'0 0.0
2014-Jul-17 01:29N 38°31' W 008°53'0 0.0
2014-Jul-17 00:26N 38°31' W 008°53'0 0.0
2014-Jul-16 23:29N 38°31' W 008°53'0 0.0
2014-Jul-16 22:33N 38°31' W 008°53'4 4.2
2014-Jul-16 21:33N 38°28' W 008°57'4 4.2
2014-Jul-16 20:33N 38°25' W 009°00'9 8.8
2014-Jul-16 19:33N 38°22' W 009°11'10 9.6
2014-Jul-16 18:33N 38°24' W 009°23'10 9.7
2014-Jul-16 17:32N 38°26' W 009°35'9 9.5
2014-Jul-16 16:33N 38°30' W 009°46'9 9.5
2014-Jul-16 15:33N 38°33' W 009°57'10 9.4
2014-Jul-16 14:33N 38°40' W 010°05'1110.5
2014-Jul-16 13:33N 38°51' W 010°05'1010.2
2014-Jul-16 12:32N 39°01' W 010°05'1010.5
2014-Jul-16 11:32N 39°12' W 010°04'1310.0
2014-Jul-16 10:15N 39°24' W 010°04'3910.0
2014-Jul-16 06:22N 40°03' W 010°05'8 9.6
2014-Jul-16 05:31N 40°11' W 010°05'  

Dump ship's entire track history